sensor_id;sensor_type;location;lat;lon;timestamp;P1;durP1;ratioP1;P2;durP2;ratioP2
41568;SDS011;27283;52.504;13.358;2023-05-06T00:01:30;22.38;;;8.52;;
41568;SDS011;27283;52.504;13.358;2023-05-06T00:04:03;16.88;;;8.45;;
41568;SDS011;27283;52.504;13.358;2023-05-06T00:06:36;13.20;;;7.85;;
41568;SDS011;27283;52.504;13.358;2023-05-06T00:09:09;20.30;;;9.20;;
41568;SDS011;27283;52.504;13.358;2023-05-06T00:11:41;20.25;;;9.50;;
41568;SDS011;27283;52.504;13.358;2023-05-06T00:14:17;21.55;;;9.75;;
41568;SDS011;27283;52.504;13.358;2023-05-06T00:17:02;17.25;;;8.88;;
41568;SDS011;27283;52.504;13.358;2023-05-06T00:19:35;20.80;;;9.32;;
41568;SDS011;27283;52.504;13.358;2023-05-06T00:22:09;21.65;;;9.73;;
41568;SDS011;27283;52.504;13.358;2023-05-06T00:24:41;25.67;;;8.80;;
41568;SDS011;27283;52.504;13.358;2023-05-06T00:27:13;20.88;;;9.25;;
41568;SDS011;27283;52.504;13.358;2023-05-06T00:29:45;22.10;;;10.25;;
41568;SDS011;27283;52.504;13.358;2023-05-06T00:32:22;32.45;;;11.50;;
41568;SDS011;27283;52.504;13.358;2023-05-06T00:34:55;22.45;;;11.70;;
41568;SDS011;27283;52.504;13.358;2023-05-06T00:37:27;27.45;;;11.02;;
41568;SDS011;27283;52.504;13.358;2023-05-06T00:39:59;21.60;;;10.70;;
41568;SDS011;27283;52.504;13.358;2023-05-06T00:42:32;20.80;;;10.48;;
41568;SDS011;27283;52.504;13.358;2023-05-06T00:45:07;21.98;;;11.15;;
41568;SDS011;27283;52.504;13.358;2023-05-06T00:47:42;24.00;;;10.98;;
41568;SDS011;27283;52.504;13.358;2023-05-06T00:50:37;17.30;;;9.35;;
41568;SDS011;27283;52.504;13.358;2023-05-06T00:53:11;20.48;;;10.30;;
41568;SDS011;27283;52.504;13.358;2023-05-06T00:55:43;27.35;;;10.00;;
41568;SDS011;27283;52.504;13.358;2023-05-06T00:58:15;17.13;;;9.52;;
41568;SDS011;27283;52.504;13.358;2023-05-06T01:00:49;19.13;;;10.00;;
41568;SDS011;27283;52.504;13.358;2023-05-06T01:03:25;19.70;;;9.85;;
41568;SDS011;27283;52.504;13.358;2023-05-06T01:06:01;24.17;;;10.38;;
41568;SDS011;27283;52.504;13.358;2023-05-06T01:08:41;23.10;;;10.73;;
41568;SDS011;27283;52.504;13.358;2023-05-06T01:11:31;18.08;;;9.68;;
41568;SDS011;27283;52.504;13.358;2023-05-06T01:14:12;19.73;;;9.65;;
41568;SDS011;27283;52.504;13.358;2023-05-06T01:16:53;19.10;;;9.32;;
41568;SDS011;27283;52.504;13.358;2023-05-06T01:19:32;21.25;;;10.40;;
41568;SDS011;27283;52.504;13.358;2023-05-06T01:22:09;21.40;;;10.38;;
41568;SDS011;27283;52.504;13.358;2023-05-06T01:24:46;19.05;;;11.02;;
41568;SDS011;27283;52.504;13.358;2023-05-06T01:27:18;21.23;;;10.60;;
41568;SDS011;27283;52.504;13.358;2023-05-06T01:29:52;19.02;;;11.23;;
41568;SDS011;27283;52.504;13.358;2023-05-06T01:32:29;23.33;;;11.25;;
41568;SDS011;27283;52.504;13.358;2023-05-06T01:35:11;23.70;;;11.00;;
41568;SDS011;27283;52.504;13.358;2023-05-06T01:37:51;21.25;;;10.63;;
41568;SDS011;27283;52.504;13.358;2023-05-06T01:40:45;24.40;;;10.75;;
41568;SDS011;27283;52.504;13.358;2023-05-06T01:43:22;21.58;;;9.63;;
41568;SDS011;27283;52.504;13.358;2023-05-06T01:45:59;21.40;;;10.02;;
41568;SDS011;27283;52.504;13.358;2023-05-06T01:48:34;23.67;;;10.10;;
41568;SDS011;27283;52.504;13.358;2023-05-06T01:51:09;20.17;;;10.65;;
41568;SDS011;27283;52.504;13.358;2023-05-06T01:53:41;19.15;;;9.98;;
41568;SDS011;27283;52.504;13.358;2023-05-06T01:56:16;19.95;;;9.77;;
41568;SDS011;27283;52.504;13.358;2023-05-06T01:58:49;22.00;;;9.80;;
41568;SDS011;27283;52.504;13.358;2023-05-06T02:01:21;20.52;;;10.65;;
41568;SDS011;27283;52.504;13.358;2023-05-06T02:03:53;23.25;;;10.27;;
41568;SDS011;27283;52.504;13.358;2023-05-06T02:06:28;21.67;;;10.50;;
41568;SDS011;27283;52.504;13.358;2023-05-06T02:09:28;23.58;;;10.27;;
41568;SDS011;27283;52.504;13.358;2023-05-06T02:12:04;21.30;;;10.15;;
41568;SDS011;27283;52.504;13.358;2023-05-06T02:14:36;20.13;;;9.85;;
41568;SDS011;27283;52.504;13.358;2023-05-06T02:17:09;22.58;;;9.68;;
41568;SDS011;27283;52.504;13.358;2023-05-06T02:19:41;22.73;;;10.52;;
41568;SDS011;27283;52.504;13.358;2023-05-06T02:22:13;24.40;;;10.82;;
41568;SDS011;27283;52.504;13.358;2023-05-06T02:24:45;19.50;;;10.20;;
41568;SDS011;27283;52.504;13.358;2023-05-06T02:27:21;22.77;;;10.05;;
41568;SDS011;27283;52.504;13.358;2023-05-06T02:29:53;21.00;;;10.55;;
41568;SDS011;27283;52.504;13.358;2023-05-06T02:32:27;29.67;;;11.68;;
41568;SDS011;27283;52.504;13.358;2023-05-06T02:35:00;26.23;;;11.05;;
41568;SDS011;27283;52.504;13.358;2023-05-06T02:37:47;23.15;;;11.20;;
41568;SDS011;27283;52.504;13.358;2023-05-06T02:40:19;30.33;;;11.85;;
41568;SDS011;27283;52.504;13.358;2023-05-06T02:42:55;27.05;;;12.07;;
41568;SDS011;27283;52.504;13.358;2023-05-06T02:45:27;27.13;;;11.65;;
41568;SDS011;27283;52.504;13.358;2023-05-06T02:48:01;24.75;;;11.57;;
41568;SDS011;27283;52.504;13.358;2023-05-06T02:50:33;25.25;;;11.73;;
41568;SDS011;27283;52.504;13.358;2023-05-06T02:53:06;27.23;;;11.90;;
41568;SDS011;27283;52.504;13.358;2023-05-06T02:55:40;25.67;;;11.65;;
41568;SDS011;27283;52.504;13.358;2023-05-06T02:58:14;24.92;;;11.23;;
41568;SDS011;27283;52.504;13.358;2023-05-06T03:00:46;24.02;;;11.13;;
41568;SDS011;27283;52.504;13.358;2023-05-06T03:03:18;23.85;;;11.10;;
41568;SDS011;27283;52.504;13.358;2023-05-06T03:05:51;25.25;;;11.48;;
41568;SDS011;27283;52.504;13.358;2023-05-06T03:08:23;27.45;;;11.30;;
41568;SDS011;27283;52.504;13.358;2023-05-06T03:10:55;24.52;;;12.25;;
41568;SDS011;27283;52.504;13.358;2023-05-06T03:13:30;26.10;;;12.45;;
41568;SDS011;27283;52.504;13.358;2023-05-06T03:16:01;22.80;;;10.93;;
41568;SDS011;27283;52.504;13.358;2023-05-06T03:18:34;25.52;;;12.35;;
41568;SDS011;27283;52.504;13.358;2023-05-06T03:21:05;25.30;;;11.38;;
41568;SDS011;27283;52.504;13.358;2023-05-06T03:23:39;25.25;;;11.05;;
41568;SDS011;27283;52.504;13.358;2023-05-06T03:26:11;26.05;;;10.82;;
41568;SDS011;27283;52.504;13.358;2023-05-06T03:28:46;23.85;;;10.82;;
41568;SDS011;27283;52.504;13.358;2023-05-06T03:31:18;24.75;;;11.13;;
41568;SDS011;27283;52.504;13.358;2023-05-06T03:34:07;21.65;;;10.98;;
41568;SDS011;27283;52.504;13.358;2023-05-06T03:36:39;26.92;;;12.13;;
41568;SDS011;27283;52.504;13.358;2023-05-06T03:39:11;27.50;;;11.73;;
41568;SDS011;27283;52.504;13.358;2023-05-06T03:41:43;26.05;;;11.40;;
41568;SDS011;27283;52.504;13.358;2023-05-06T03:44:18;24.02;;;12.02;;
41568;SDS011;27283;52.504;13.358;2023-05-06T03:46:50;24.73;;;12.13;;
41568;SDS011;27283;52.504;13.358;2023-05-06T03:49:22;21.23;;;11.50;;
41568;SDS011;27283;52.504;13.358;2023-05-06T03:51:54;24.65;;;11.30;;
41568;SDS011;27283;52.504;13.358;2023-05-06T03:54:26;23.80;;;11.43;;
41568;SDS011;27283;52.504;13.358;2023-05-06T03:57:12;23.08;;;11.65;;
41568;SDS011;27283;52.504;13.358;2023-05-06T03:59:47;24.08;;;11.55;;
41568;SDS011;27283;52.504;13.358;2023-05-06T04:02:19;24.63;;;11.90;;
41568;SDS011;27283;52.504;13.358;2023-05-06T04:04:51;22.73;;;11.52;;
41568;SDS011;27283;52.504;13.358;2023-05-06T04:07:23;24.58;;;12.07;;
41568;SDS011;27283;52.504;13.358;2023-05-06T04:09:55;23.38;;;11.85;;
41568;SDS011;27283;52.504;13.358;2023-05-06T04:12:27;24.25;;;11.27;;
41568;SDS011;27283;52.504;13.358;2023-05-06T04:15:02;24.45;;;11.10;;
41568;SDS011;27283;52.504;13.358;2023-05-06T04:17:34;24.98;;;11.50;;
41568;SDS011;27283;52.504;13.358;2023-05-06T04:20:07;19.67;;;11.73;;
41568;SDS011;27283;52.504;13.358;2023-05-06T04:22:39;21.35;;;11.13;;
41568;SDS011;27283;52.504;13.358;2023-05-06T04:25:12;26.70;;;11.32;;
41568;SDS011;27283;52.504;13.358;2023-05-06T04:27:45;24.60;;;10.52;;
41568;SDS011;27283;52.504;13.358;2023-05-06T04:30:20;20.38;;;11.35;;
41568;SDS011;27283;52.504;13.358;2023-05-06T04:32:52;25.55;;;12.10;;
41568;SDS011;27283;52.504;13.358;2023-05-06T04:35:24;21.75;;;11.07;;
41568;SDS011;27283;52.504;13.358;2023-05-06T04:37:56;22.95;;;11.10;;
41568;SDS011;27283;52.504;13.358;2023-05-06T04:40:28;22.73;;;10.85;;
41568;SDS011;27283;52.504;13.358;2023-05-06T04:43:06;23.30;;;11.73;;
41568;SDS011;27283;52.504;13.358;2023-05-06T04:45:56;26.33;;;11.43;;
41568;SDS011;27283;52.504;13.358;2023-05-06T04:48:28;25.27;;;11.52;;
41568;SDS011;27283;52.504;13.358;2023-05-06T04:51:00;32.03;;;11.07;;
41568;SDS011;27283;52.504;13.358;2023-05-06T04:53:33;23.40;;;10.55;;
41568;SDS011;27283;52.504;13.358;2023-05-06T04:56:06;22.98;;;11.07;;
41568;SDS011;27283;52.504;13.358;2023-05-06T04:58:38;20.90;;;11.15;;
41568;SDS011;27283;52.504;13.358;2023-05-06T05:01:13;20.90;;;10.55;;
41568;SDS011;27283;52.504;13.358;2023-05-06T05:03:46;21.40;;;10.93;;
41568;SDS011;27283;52.504;13.358;2023-05-06T05:06:19;22.65;;;11.07;;
41568;SDS011;27283;52.504;13.358;2023-05-06T05:08:51;20.45;;;10.48;;
41568;SDS011;27283;52.504;13.358;2023-05-06T05:11:24;20.48;;;10.73;;
41568;SDS011;27283;52.504;13.358;2023-05-06T05:13:56;21.63;;;10.65;;
41568;SDS011;27283;52.504;13.358;2023-05-06T05:16:32;21.13;;;10.05;;
41568;SDS011;27283;52.504;13.358;2023-05-06T05:19:06;23.55;;;10.48;;
41568;SDS011;27283;52.504;13.358;2023-05-06T05:21:41;23.42;;;11.43;;
41568;SDS011;27283;52.504;13.358;2023-05-06T05:24:13;20.58;;;10.68;;
41568;SDS011;27283;52.504;13.358;2023-05-06T05:26:45;24.15;;;11.13;;
41568;SDS011;27283;52.504;13.358;2023-05-06T05:29:17;24.80;;;10.40;;
41568;SDS011;27283;52.504;13.358;2023-05-06T05:31:52;23.80;;;11.00;;
41568;SDS011;27283;52.504;13.358;2023-05-06T05:34:25;23.42;;;10.63;;
41568;SDS011;27283;52.504;13.358;2023-05-06T05:36:57;24.00;;;10.30;;
41568;SDS011;27283;52.504;13.358;2023-05-06T05:39:29;18.55;;;10.30;;
41568;SDS011;27283;52.504;13.358;2023-05-06T05:42:02;22.35;;;10.00;;
41568;SDS011;27283;52.504;13.358;2023-05-06T05:44:34;22.98;;;10.38;;
41568;SDS011;27283;52.504;13.358;2023-05-06T05:47:09;21.35;;;9.93;;
41568;SDS011;27283;52.504;13.358;2023-05-06T05:49:42;18.33;;;9.63;;
41568;SDS011;27283;52.504;13.358;2023-05-06T05:52:14;20.00;;;10.45;;
41568;SDS011;27283;52.504;13.358;2023-05-06T05:54:46;18.23;;;9.65;;
41568;SDS011;27283;52.504;13.358;2023-05-06T05:57:57;24.40;;;10.02;;
41568;SDS011;27283;52.504;13.358;2023-05-06T06:00:29;24.13;;;10.55;;
41568;SDS011;27283;52.504;13.358;2023-05-06T06:03:04;21.63;;;9.70;;
41568;SDS011;27283;52.504;13.358;2023-05-06T06:05:45;22.17;;;9.98;;
41568;SDS011;27283;52.504;13.358;2023-05-06T06:08:17;23.50;;;9.73;;
41568;SDS011;27283;52.504;13.358;2023-05-06T06:10:49;18.45;;;9.98;;
41568;SDS011;27283;52.504;13.358;2023-05-06T06:13:21;20.13;;;9.55;;
41568;SDS011;27283;52.504;13.358;2023-05-06T06:15:56;21.20;;;10.02;;
41568;SDS011;27283;52.504;13.358;2023-05-06T06:18:31;22.13;;;10.30;;
41568;SDS011;27283;52.504;13.358;2023-05-06T06:21:04;20.98;;;10.77;;
41568;SDS011;27283;52.504;13.358;2023-05-06T06:23:36;21.67;;;10.00;;
41568;SDS011;27283;52.504;13.358;2023-05-06T06:26:08;20.77;;;10.50;;
41568;SDS011;27283;52.504;13.358;2023-05-06T06:28:41;21.60;;;10.73;;
41568;SDS011;27283;52.504;13.358;2023-05-06T06:31:14;20.63;;;10.07;;
41568;SDS011;27283;52.504;13.358;2023-05-06T06:33:49;19.35;;;9.60;;
41568;SDS011;27283;52.504;13.358;2023-05-06T06:36:21;18.45;;;9.63;;
41568;SDS011;27283;52.504;13.358;2023-05-06T06:38:53;19.10;;;9.95;;
41568;SDS011;27283;52.504;13.358;2023-05-06T06:41:26;21.67;;;10.30;;
41568;SDS011;27283;52.504;13.358;2023-05-06T06:43:58;19.67;;;10.00;;
41568;SDS011;27283;52.504;13.358;2023-05-06T06:46:30;20.23;;;10.15;;
41568;SDS011;27283;52.504;13.358;2023-05-06T06:49:05;16.92;;;8.90;;
41568;SDS011;27283;52.504;13.358;2023-05-06T06:51:37;22.88;;;10.55;;
41568;SDS011;27283;52.504;13.358;2023-05-06T06:54:10;22.08;;;10.95;;
41568;SDS011;27283;52.504;13.358;2023-05-06T06:56:42;20.77;;;10.43;;
41568;SDS011;27283;52.504;13.358;2023-05-06T06:59:14;21.00;;;11.20;;
41568;SDS011;27283;52.504;13.358;2023-05-06T07:01:47;20.17;;;11.00;;
41568;SDS011;27283;52.504;13.358;2023-05-06T07:04:22;20.15;;;10.90;;
41568;SDS011;27283;52.504;13.358;2023-05-06T07:06:54;21.52;;;10.48;;
41568;SDS011;27283;52.504;13.358;2023-05-06T07:09:27;20.55;;;10.68;;
41568;SDS011;27283;52.504;13.358;2023-05-06T07:12:02;23.02;;;11.13;;
41568;SDS011;27283;52.504;13.358;2023-05-06T07:14:35;21.65;;;10.02;;
41568;SDS011;27283;52.504;13.358;2023-05-06T07:17:07;21.52;;;10.77;;
41568;SDS011;27283;52.504;13.358;2023-05-06T07:19:42;24.80;;;11.07;;
41568;SDS011;27283;52.504;13.358;2023-05-06T07:22:15;20.98;;;11.00;;
41568;SDS011;27283;52.504;13.358;2023-05-06T07:24:48;19.90;;;11.38;;
41568;SDS011;27283;52.504;13.358;2023-05-06T07:27:20;21.52;;;11.07;;
41568;SDS011;27283;52.504;13.358;2023-05-06T07:29:52;21.60;;;11.38;;
41568;SDS011;27283;52.504;13.358;2023-05-06T07:32:25;22.67;;;10.88;;
41568;SDS011;27283;52.504;13.358;2023-05-06T07:35:00;20.70;;;11.32;;
41568;SDS011;27283;52.504;13.358;2023-05-06T07:37:33;20.13;;;10.35;;
41568;SDS011;27283;52.504;13.358;2023-05-06T07:40:06;22.88;;;10.88;;
41568;SDS011;27283;52.504;13.358;2023-05-06T08:36:48;26.20;;;14.45;;
41568;SDS011;27283;52.504;13.358;2023-05-06T08:39:24;24.02;;;14.20;;
41568;SDS011;27283;52.504;13.358;2023-05-06T08:41:58;27.10;;;15.80;;
41568;SDS011;27283;52.504;13.358;2023-05-06T08:44:32;26.30;;;16.05;;
41568;SDS011;27283;52.504;13.358;2023-05-06T08:47:05;31.05;;;16.83;;
41568;SDS011;27283;52.504;13.358;2023-05-06T08:49:38;26.67;;;16.40;;
41568;SDS011;27283;52.504;13.358;2023-05-06T08:52:14;31.08;;;16.40;;
41568;SDS011;27283;52.504;13.358;2023-05-06T08:54:48;27.73;;;15.23;;
41568;SDS011;27283;52.504;13.358;2023-05-06T08:57:28;27.10;;;17.05;;
41568;SDS011;27283;52.504;13.358;2023-05-06T09:00:02;24.90;;;15.82;;
41568;SDS011;27283;52.504;13.358;2023-05-06T09:02:38;29.13;;;16.42;;
41568;SDS011;27283;52.504;13.358;2023-05-06T09:05:11;25.58;;;15.60;;
41568;SDS011;27283;52.504;13.358;2023-05-06T09:07:46;30.10;;;16.08;;
41568;SDS011;27283;52.504;13.358;2023-05-06T09:10:19;23.17;;;15.38;;
41568;SDS011;27283;52.504;13.358;2023-05-06T09:12:52;25.35;;;15.02;;
41568;SDS011;27283;52.504;13.358;2023-05-06T09:15:26;27.23;;;16.30;;
41568;SDS011;27283;52.504;13.358;2023-05-06T09:18:10;26.50;;;16.13;;
41568;SDS011;27283;52.504;13.358;2023-05-06T09:20:43;28.20;;;16.25;;
41568;SDS011;27283;52.504;13.358;2023-05-06T09:23:19;30.75;;;17.88;;
41568;SDS011;27283;52.504;13.358;2023-05-06T09:25:53;30.35;;;17.10;;
41568;SDS011;27283;52.504;13.358;2023-05-06T09:28:31;23.00;;;14.77;;
41568;SDS011;27283;52.504;13.358;2023-05-06T09:31:06;26.55;;;14.65;;
41568;SDS011;27283;52.504;13.358;2023-05-06T09:33:39;26.10;;;16.33;;
41568;SDS011;27283;52.504;13.358;2023-05-06T09:36:11;25.33;;;15.43;;
41568;SDS011;27283;52.504;13.358;2023-05-06T09:38:46;26.73;;;16.20;;
41568;SDS011;27283;52.504;13.358;2023-05-06T09:41:19;24.35;;;14.98;;
41568;SDS011;27283;52.504;13.358;2023-05-06T09:43:53;25.52;;;15.02;;
41568;SDS011;27283;52.504;13.358;2023-05-06T09:46:27;29.13;;;16.38;;
41568;SDS011;27283;52.504;13.358;2023-05-06T09:49:00;25.00;;;14.98;;
41568;SDS011;27283;52.504;13.358;2023-05-06T09:51:48;22.77;;;13.60;;
41568;SDS011;27283;52.504;13.358;2023-05-06T09:54:22;21.65;;;13.80;;
41568;SDS011;27283;52.504;13.358;2023-05-06T09:56:55;21.35;;;13.68;;
41568;SDS011;27283;52.504;13.358;2023-05-06T09:59:33;21.20;;;13.80;;
41568;SDS011;27283;52.504;13.358;2023-05-06T10:02:10;20.90;;;13.15;;
41568;SDS011;27283;52.504;13.358;2023-05-06T10:04:46;21.58;;;13.45;;
41568;SDS011;27283;52.504;13.358;2023-05-06T10:07:22;24.33;;;12.40;;
41568;SDS011;27283;52.504;13.358;2023-05-06T10:09:58;17.35;;;10.63;;
41568;SDS011;27283;52.504;13.358;2023-05-06T10:12:32;18.27;;;11.20;;
41568;SDS011;27283;52.504;13.358;2023-05-06T10:15:09;18.50;;;10.95;;
41568;SDS011;27283;52.504;13.358;2023-05-06T10:17:44;14.98;;;10.05;;
41568;SDS011;27283;52.504;13.358;2023-05-06T10:20:20;15.48;;;10.38;;
41568;SDS011;27283;52.504;13.358;2023-05-06T10:22:58;26.30;;;15.05;;
41568;SDS011;27283;52.504;13.358;2023-05-06T10:25:39;18.83;;;12.85;;
41568;SDS011;27283;52.504;13.358;2023-05-06T10:28:13;21.85;;;13.45;;
41568;SDS011;27283;52.504;13.358;2023-05-06T10:30:57;17.25;;;11.93;;
41568;SDS011;27283;52.504;13.358;2023-05-06T10:33:30;19.20;;;12.18;;
41568;SDS011;27283;52.504;13.358;2023-05-06T10:36:06;19.33;;;11.52;;
41568;SDS011;27283;52.504;13.358;2023-05-06T10:38:47;19.48;;;11.85;;
41568;SDS011;27283;52.504;13.358;2023-05-06T10:41:26;21.10;;;12.70;;
41568;SDS011;27283;52.504;13.358;2023-05-06T10:43:59;17.70;;;11.55;;
41568;SDS011;27283;52.504;13.358;2023-05-06T10:46:54;19.63;;;12.45;;
41568;SDS011;27283;52.504;13.358;2023-05-06T10:49:28;22.55;;;12.65;;
41568;SDS011;27283;52.504;13.358;2023-05-06T10:52:09;19.50;;;12.07;;
41568;SDS011;27283;52.504;13.358;2023-05-06T10:54:48;19.60;;;11.38;;
41568;SDS011;27283;52.504;13.358;2023-05-06T10:57:23;17.58;;;11.55;;
41568;SDS011;27283;52.504;13.358;2023-05-06T10:59:56;18.08;;;11.65;;
41568;SDS011;27283;52.504;13.358;2023-05-06T11:02:29;20.23;;;11.60;;
41568;SDS011;27283;52.504;13.358;2023-05-06T11:05:02;18.60;;;10.65;;
41568;SDS011;27283;52.504;13.358;2023-05-06T11:07:35;16.08;;;10.70;;
41568;SDS011;27283;52.504;13.358;2023-05-06T11:10:09;17.02;;;10.63;;
41568;SDS011;27283;52.504;13.358;2023-05-06T11:13:20;16.70;;;9.73;;
41568;SDS011;27283;52.504;13.358;2023-05-06T11:15:55;14.20;;;9.52;;
41568;SDS011;27283;52.504;13.358;2023-05-06T11:18:41;14.15;;;9.40;;
41568;SDS011;27283;52.504;13.358;2023-05-06T11:24:11;14.63;;;8.95;;
41568;SDS011;27283;52.504;13.358;2023-05-06T11:26:44;12.90;;;7.70;;
41568;SDS011;27283;52.504;13.358;2023-05-06T11:29:21;11.18;;;7.57;;
41568;SDS011;27283;52.504;13.358;2023-05-06T11:31:53;12.35;;;7.53;;
41568;SDS011;27283;52.504;13.358;2023-05-06T11:34:26;11.80;;;7.28;;
41568;SDS011;27283;52.504;13.358;2023-05-06T11:37:01;8.75;;;6.53;;
41568;SDS011;27283;52.504;13.358;2023-05-06T11:39:34;8.10;;;6.10;;
41568;SDS011;27283;52.504;13.358;2023-05-06T11:42:10;8.80;;;6.20;;
41568;SDS011;27283;52.504;13.358;2023-05-06T11:44:48;9.50;;;6.15;;
41568;SDS011;27283;52.504;13.358;2023-05-06T11:47:26;9.23;;;5.68;;
41568;SDS011;27283;52.504;13.358;2023-05-06T11:50:06;9.27;;;6.13;;
41568;SDS011;27283;52.504;13.358;2023-05-06T11:52:39;11.18;;;6.43;;
41568;SDS011;27283;52.504;13.358;2023-05-06T11:55:11;9.93;;;6.25;;
41568;SDS011;27283;52.504;13.358;2023-05-06T11:57:45;11.88;;;6.47;;
41568;SDS011;27283;52.504;13.358;2023-05-06T12:00:21;9.05;;;6.15;;
41568;SDS011;27283;52.504;13.358;2023-05-06T12:02:55;9.73;;;6.30;;
41568;SDS011;27283;52.504;13.358;2023-05-06T12:05:27;9.75;;;6.25;;
41568;SDS011;27283;52.504;13.358;2023-05-06T12:08:02;9.32;;;6.20;;
41568;SDS011;27283;52.504;13.358;2023-05-06T12:10:50;7.80;;;5.75;;
41568;SDS011;27283;52.504;13.358;2023-05-06T12:13:24;10.02;;;5.93;;
41568;SDS011;27283;52.504;13.358;2023-05-06T12:16:00;9.18;;;6.13;;
41568;SDS011;27283;52.504;13.358;2023-05-06T12:18:35;7.95;;;5.68;;
41568;SDS011;27283;52.504;13.358;2023-05-06T12:21:10;9.70;;;6.40;;
41568;SDS011;27283;52.504;13.358;2023-05-06T12:23:50;9.10;;;6.50;;
41568;SDS011;27283;52.504;13.358;2023-05-06T12:26:23;10.77;;;6.43;;
41568;SDS011;27283;52.504;13.358;2023-05-06T12:29:04;9.20;;;5.90;;
41568;SDS011;27283;52.504;13.358;2023-05-06T12:31:40;10.00;;;6.22;;
41568;SDS011;27283;52.504;13.358;2023-05-06T12:34:14;7.90;;;5.18;;
41568;SDS011;27283;52.504;13.358;2023-05-06T12:36:47;9.70;;;5.65;;
41568;SDS011;27283;52.504;13.358;2023-05-06T12:39:19;8.35;;;5.68;;
41568;SDS011;27283;52.504;13.358;2023-05-06T12:41:51;8.43;;;5.50;;
41568;SDS011;27283;52.504;13.358;2023-05-06T12:44:33;9.98;;;5.80;;
41568;SDS011;27283;52.504;13.358;2023-05-06T12:47:17;9.40;;;6.38;;
41568;SDS011;27283;52.504;13.358;2023-05-06T12:49:51;8.75;;;6.05;;
41568;SDS011;27283;52.504;13.358;2023-05-06T12:52:26;10.38;;;5.68;;
41568;SDS011;27283;52.504;13.358;2023-05-06T12:55:00;10.25;;;6.30;;
41568;SDS011;27283;52.504;13.358;2023-05-06T12:57:31;9.07;;;6.18;;
41568;SDS011;27283;52.504;13.358;2023-05-06T13:00:10;9.20;;;5.65;;
41568;SDS011;27283;52.504;13.358;2023-05-06T13:02:49;10.18;;;5.72;;
41568;SDS011;27283;52.504;13.358;2023-05-06T13:05:23;9.10;;;5.20;;
41568;SDS011;27283;52.504;13.358;2023-05-06T13:07:58;9.45;;;5.35;;
41568;SDS011;27283;52.504;13.358;2023-05-06T13:10:32;7.05;;;4.85;;
41568;SDS011;27283;52.504;13.358;2023-05-06T13:13:03;9.13;;;5.15;;
41568;SDS011;27283;52.504;13.358;2023-05-06T13:15:39;7.20;;;5.03;;
41568;SDS011;27283;52.504;13.358;2023-05-06T13:18:13;7.82;;;4.75;;
41568;SDS011;27283;52.504;13.358;2023-05-06T13:20:46;7.47;;;4.93;;
41568;SDS011;27283;52.504;13.358;2023-05-06T13:23:19;8.68;;;5.28;;
41568;SDS011;27283;52.504;13.358;2023-05-06T13:25:51;10.30;;;4.88;;
41568;SDS011;27283;52.504;13.358;2023-05-06T13:28:32;7.72;;;4.95;;
41568;SDS011;27283;52.504;13.358;2023-05-06T13:31:08;8.93;;;4.93;;
41568;SDS011;27283;52.504;13.358;2023-05-06T13:33:43;8.50;;;4.90;;
41568;SDS011;27283;52.504;13.358;2023-05-06T13:36:15;6.60;;;4.35;;
41568;SDS011;27283;52.504;13.358;2023-05-06T13:38:47;6.18;;;4.40;;
41568;SDS011;27283;52.504;13.358;2023-05-06T13:41:20;9.93;;;4.45;;
41568;SDS011;27283;52.504;13.358;2023-05-06T13:43:55;9.15;;;4.18;;
41568;SDS011;27283;52.504;13.358;2023-05-06T13:46:30;13.50;;;4.40;;
41568;SDS011;27283;52.504;13.358;2023-05-06T13:49:05;8.00;;;4.43;;
41568;SDS011;27283;52.504;13.358;2023-05-06T13:51:37;6.97;;;4.20;;
41568;SDS011;27283;52.504;13.358;2023-05-06T13:54:12;7.70;;;4.38;;
41568;SDS011;27283;52.504;13.358;2023-05-06T13:56:47;8.50;;;4.25;;
41568;SDS011;27283;52.504;13.358;2023-05-06T13:59:19;11.00;;;4.38;;
41568;SDS011;27283;52.504;13.358;2023-05-06T14:01:52;6.35;;;3.80;;
41568;SDS011;27283;52.504;13.358;2023-05-06T14:04:27;6.43;;;4.30;;
41568;SDS011;27283;52.504;13.358;2023-05-06T14:07:00;5.63;;;4.10;;
41568;SDS011;27283;52.504;13.358;2023-05-06T14:09:32;5.88;;;3.70;;
41568;SDS011;27283;52.504;13.358;2023-05-06T14:12:05;5.60;;;4.05;;
41568;SDS011;27283;52.504;13.358;2023-05-06T14:14:37;5.63;;;4.00;;
41568;SDS011;27283;52.504;13.358;2023-05-06T14:17:19;7.25;;;3.75;;
41568;SDS011;27283;52.504;13.358;2023-05-06T14:19:53;7.03;;;4.28;;
41568;SDS011;27283;52.504;13.358;2023-05-06T14:22:26;7.15;;;4.00;;
41568;SDS011;27283;52.504;13.358;2023-05-06T14:24:58;8.98;;;4.22;;
41568;SDS011;27283;52.504;13.358;2023-05-06T14:27:31;8.52;;;4.07;;
41568;SDS011;27283;52.504;13.358;2023-05-06T14:30:04;8.10;;;4.18;;
41568;SDS011;27283;52.504;13.358;2023-05-06T14:32:38;7.72;;;4.75;;
41568;SDS011;27283;52.504;13.358;2023-05-06T14:35:12;8.52;;;4.72;;
41568;SDS011;27283;52.504;13.358;2023-05-06T14:37:45;6.72;;;4.55;;
41568;SDS011;27283;52.504;13.358;2023-05-06T14:40:17;9.85;;;4.80;;
41568;SDS011;27283;52.504;13.358;2023-05-06T14:42:53;8.93;;;5.18;;
41568;SDS011;27283;52.504;13.358;2023-05-06T14:45:26;8.45;;;4.90;;
41568;SDS011;27283;52.504;13.358;2023-05-06T14:48:01;6.68;;;4.85;;
41568;SDS011;27283;52.504;13.358;2023-05-06T14:50:42;5.85;;;4.18;;
41568;SDS011;27283;52.504;13.358;2023-05-06T14:53:14;9.73;;;4.38;;
41568;SDS011;27283;52.504;13.358;2023-05-06T14:55:49;7.30;;;4.40;;
41568;SDS011;27283;52.504;13.358;2023-05-06T14:58:24;10.02;;;4.22;;
41568;SDS011;27283;52.504;13.358;2023-05-06T15:00:56;4.85;;;3.85;;
41568;SDS011;27283;52.504;13.358;2023-05-06T15:03:32;9.93;;;3.90;;
41568;SDS011;27283;52.504;13.358;2023-05-06T15:06:07;4.95;;;3.47;;
41568;SDS011;27283;52.504;13.358;2023-05-06T15:08:45;5.53;;;3.55;;
41568;SDS011;27283;52.504;13.358;2023-05-06T15:11:18;5.25;;;3.72;;
41568;SDS011;27283;52.504;13.358;2023-05-06T15:13:51;7.53;;;3.35;;
41568;SDS011;27283;52.504;13.358;2023-05-06T15:16:23;4.78;;;2.85;;
41568;SDS011;27283;52.504;13.358;2023-05-06T15:18:55;5.25;;;3.13;;
41568;SDS011;27283;52.504;13.358;2023-05-06T15:21:30;8.07;;;3.60;;
41568;SDS011;27283;52.504;13.358;2023-05-06T15:24:04;6.05;;;2.95;;
41568;SDS011;27283;52.504;13.358;2023-05-06T15:26:37;5.63;;;3.40;;
41568;SDS011;27283;52.504;13.358;2023-05-06T15:29:10;7.30;;;3.80;;
41568;SDS011;27283;52.504;13.358;2023-05-06T15:31:42;7.05;;;3.80;;
41568;SDS011;27283;52.504;13.358;2023-05-06T15:34:15;4.68;;;3.80;;
41568;SDS011;27283;52.504;13.358;2023-05-06T15:36:51;8.55;;;4.20;;
41568;SDS011;27283;52.504;13.358;2023-05-06T15:39:25;5.68;;;3.90;;
41568;SDS011;27283;52.504;13.358;2023-05-06T15:42:01;6.47;;;3.95;;
41568;SDS011;27283;52.504;13.358;2023-05-06T15:44:34;5.65;;;3.55;;
41568;SDS011;27283;52.504;13.358;2023-05-06T15:47:06;5.65;;;4.00;;
41568;SDS011;27283;52.504;13.358;2023-05-06T15:49:54;5.38;;;4.18;;
41568;SDS011;27283;52.504;13.358;2023-05-06T15:52:28;5.65;;;4.15;;
41568;SDS011;27283;52.504;13.358;2023-05-06T15:55:08;6.43;;;3.88;;
41568;SDS011;27283;52.504;13.358;2023-05-06T15:57:42;5.97;;;4.05;;
41568;SDS011;27283;52.504;13.358;2023-05-06T16:00:17;6.18;;;4.03;;